sensor_id;sensor_type;location;lat;lon;timestamp;P1;durP1;ratioP1;P2;durP2;ratioP2
11618;SDS011;5865;48.776;9.280;2024-01-27T00:01:18;4.90;;;2.40;;
11618;SDS011;5865;48.776;9.280;2024-01-27T00:03:46;4.93;;;1.83;;
11618;SDS011;5865;48.776;9.280;2024-01-27T00:06:15;6.90;;;2.00;;
11618;SDS011;5865;48.776;9.280;2024-01-27T00:08:52;6.87;;;2.20;;
11618;SDS011;5865;48.776;9.280;2024-01-27T00:11:21;6.83;;;2.70;;
11618;SDS011;5865;48.776;9.280;2024-01-27T00:13:53;4.70;;;2.00;;
11618;SDS011;5865;48.776;9.280;2024-01-27T00:16:21;5.63;;;1.90;;
11618;SDS011;5865;48.776;9.280;2024-01-27T00:18:48;6.77;;;2.20;;
11618;SDS011;5865;48.776;9.280;2024-01-27T00:21:17;6.27;;;2.33;;
11618;SDS011;5865;48.776;9.280;2024-01-27T00:23:51;4.27;;;1.70;;
11618;SDS011;5865;48.776;9.280;2024-01-27T00:26:20;3.17;;;1.63;;
11618;SDS011;5865;48.776;9.280;2024-01-27T00:28:47;6.00;;;1.90;;
11618;SDS011;5865;48.776;9.280;2024-01-27T00:31:16;4.73;;;2.10;;
11618;SDS011;5865;48.776;9.280;2024-01-27T00:33:43;3.50;;;2.20;;
11618;SDS011;5865;48.776;9.280;2024-01-27T00:36:10;5.63;;;2.40;;
11618;SDS011;5865;48.776;9.280;2024-01-27T00:38:39;4.43;;;2.20;;
11618;SDS011;5865;48.776;9.280;2024-01-27T00:41:06;5.83;;;2.13;;
11618;SDS011;5865;48.776;9.280;2024-01-27T00:43:37;6.17;;;2.73;;
11618;SDS011;5865;48.776;9.280;2024-01-27T00:46:05;6.73;;;2.07;;
11618;SDS011;5865;48.776;9.280;2024-01-27T00:48:33;3.97;;;2.13;;
11618;SDS011;5865;48.776;9.280;2024-01-27T00:51:01;4.30;;;2.00;;
11618;SDS011;5865;48.776;9.280;2024-01-27T00:53:28;7.30;;;2.20;;
11618;SDS011;5865;48.776;9.280;2024-01-27T00:56:01;4.07;;;2.07;;
11618;SDS011;5865;48.776;9.280;2024-01-27T00:58:29;4.13;;;2.13;;
11618;SDS011;5865;48.776;9.280;2024-01-27T01:00:56;5.17;;;1.90;;
11618;SDS011;5865;48.776;9.280;2024-01-27T01:03:23;6.93;;;2.10;;
11618;SDS011;5865;48.776;9.280;2024-01-27T01:05:52;3.57;;;2.07;;
11618;SDS011;5865;48.776;9.280;2024-01-27T01:08:19;5.37;;;2.17;;
11618;SDS011;5865;48.776;9.280;2024-01-27T01:10:46;5.67;;;2.00;;
11618;SDS011;5865;48.776;9.280;2024-01-27T01:13:13;3.67;;;1.90;;
11618;SDS011;5865;48.776;9.280;2024-01-27T01:15:42;4.70;;;2.27;;
11618;SDS011;5865;48.776;9.280;2024-01-27T01:18:09;6.57;;;2.60;;
11618;SDS011;5865;48.776;9.280;2024-01-27T01:20:36;8.57;;;2.30;;
11618;SDS011;5865;48.776;9.280;2024-01-27T01:23:04;5.77;;;2.40;;
11618;SDS011;5865;48.776;9.280;2024-01-27T01:25:31;4.57;;;2.20;;
11618;SDS011;5865;48.776;9.280;2024-01-27T01:27:58;4.80;;;2.00;;
11618;SDS011;5865;48.776;9.280;2024-01-27T01:30:25;3.37;;;2.17;;
11618;SDS011;5865;48.776;9.280;2024-01-27T01:32:53;3.40;;;1.73;;
11618;SDS011;5865;48.776;9.280;2024-01-27T01:35:20;5.13;;;2.60;;
11618;SDS011;5865;48.776;9.280;2024-01-27T01:37:47;7.73;;;2.37;;
11618;SDS011;5865;48.776;9.280;2024-01-27T01:40:16;3.10;;;1.93;;
11618;SDS011;5865;48.776;9.280;2024-01-27T01:42:43;4.60;;;2.40;;
11618;SDS011;5865;48.776;9.280;2024-01-27T01:45:16;6.50;;;2.20;;
11618;SDS011;5865;48.776;9.280;2024-01-27T01:47:44;4.43;;;2.57;;
11618;SDS011;5865;48.776;9.280;2024-01-27T01:50:11;4.93;;;2.60;;
11618;SDS011;5865;48.776;9.280;2024-01-27T01:52:38;2.90;;;2.17;;
11618;SDS011;5865;48.776;9.280;2024-01-27T01:55:06;5.60;;;2.10;;
11618;SDS011;5865;48.776;9.280;2024-01-27T01:57:35;5.13;;;2.33;;
11618;SDS011;5865;48.776;9.280;2024-01-27T02:00:05;3.20;;;2.30;;
11618;SDS011;5865;48.776;9.280;2024-01-27T02:02:37;4.30;;;2.30;;
11618;SDS011;5865;48.776;9.280;2024-01-27T02:05:04;6.90;;;2.50;;
11618;SDS011;5865;48.776;9.280;2024-01-27T02:07:35;5.50;;;2.57;;
11618;SDS011;5865;48.776;9.280;2024-01-27T02:10:03;4.53;;;2.30;;
11618;SDS011;5865;48.776;9.280;2024-01-27T02:12:31;6.83;;;2.70;;
11618;SDS011;5865;48.776;9.280;2024-01-27T02:15:02;4.63;;;2.13;;
11618;SDS011;5865;48.776;9.280;2024-01-27T02:17:30;4.90;;;2.57;;
11618;SDS011;5865;48.776;9.280;2024-01-27T02:19:58;3.70;;;2.40;;
11618;SDS011;5865;48.776;9.280;2024-01-27T02:22:33;7.93;;;2.50;;
11618;SDS011;5865;48.776;9.280;2024-01-27T02:25:03;5.57;;;2.40;;
11618;SDS011;5865;48.776;9.280;2024-01-27T02:27:31;3.47;;;2.53;;
11618;SDS011;5865;48.776;9.280;2024-01-27T02:30:02;5.87;;;2.40;;
11618;SDS011;5865;48.776;9.280;2024-01-27T02:32:30;6.73;;;2.47;;
11618;SDS011;5865;48.776;9.280;2024-01-27T02:34:57;3.10;;;2.30;;
11618;SDS011;5865;48.776;9.280;2024-01-27T02:37:27;4.43;;;2.80;;
11618;SDS011;5865;48.776;9.280;2024-01-27T02:40:04;5.93;;;2.30;;
11618;SDS011;5865;48.776;9.280;2024-01-27T02:42:33;3.57;;;2.30;;
11618;SDS011;5865;48.776;9.280;2024-01-27T02:45:07;4.67;;;2.30;;
11618;SDS011;5865;48.776;9.280;2024-01-27T02:47:35;5.47;;;3.00;;
11618;SDS011;5865;48.776;9.280;2024-01-27T02:50:07;6.40;;;2.50;;
11618;SDS011;5865;48.776;9.280;2024-01-27T02:52:37;4.80;;;2.63;;
11618;SDS011;5865;48.776;9.280;2024-01-27T02:55:07;2.80;;;2.40;;
11618;SDS011;5865;48.776;9.280;2024-01-27T02:57:35;5.13;;;2.30;;
11618;SDS011;5865;48.776;9.280;2024-01-27T03:00:09;5.03;;;2.83;;
11618;SDS011;5865;48.776;9.280;2024-01-27T03:02:37;4.53;;;2.70;;
11618;SDS011;5865;48.776;9.280;2024-01-27T03:05:04;4.93;;;2.60;;
11618;SDS011;5865;48.776;9.280;2024-01-27T03:07:39;4.20;;;2.57;;
11618;SDS011;5865;48.776;9.280;2024-01-27T03:10:09;6.50;;;2.63;;
11618;SDS011;5865;48.776;9.280;2024-01-27T03:12:36;7.13;;;2.70;;
11618;SDS011;5865;48.776;9.280;2024-01-27T03:15:07;4.73;;;2.40;;
11618;SDS011;5865;48.776;9.280;2024-01-27T03:17:37;4.33;;;2.30;;
11618;SDS011;5865;48.776;9.280;2024-01-27T03:20:05;3.93;;;2.47;;
11618;SDS011;5865;48.776;9.280;2024-01-27T03:22:33;5.27;;;2.57;;
11618;SDS011;5865;48.776;9.280;2024-01-27T03:25:05;7.27;;;3.00;;
11618;SDS011;5865;48.776;9.280;2024-01-27T03:27:34;6.97;;;2.70;;
11618;SDS011;5865;48.776;9.280;2024-01-27T03:30:01;5.93;;;2.50;;
11618;SDS011;5865;48.776;9.280;2024-01-27T03:32:29;6.97;;;2.63;;
11618;SDS011;5865;48.776;9.280;2024-01-27T03:34:58;4.77;;;2.67;;
11618;SDS011;5865;48.776;9.280;2024-01-27T03:37:24;4.53;;;2.53;;
11618;SDS011;5865;48.776;9.280;2024-01-27T03:39:52;4.73;;;2.50;;
11618;SDS011;5865;48.776;9.280;2024-01-27T03:42:22;3.83;;;2.23;;
11618;SDS011;5865;48.776;9.280;2024-01-27T03:44:52;5.57;;;2.70;;
11618;SDS011;5865;48.776;9.280;2024-01-27T03:47:19;6.00;;;2.60;;
11618;SDS011;5865;48.776;9.280;2024-01-27T03:49:47;6.30;;;2.50;;
11618;SDS011;5865;48.776;9.280;2024-01-27T03:52:14;4.03;;;2.97;;
11618;SDS011;5865;48.776;9.280;2024-01-27T03:54:41;6.17;;;2.50;;
11618;SDS011;5865;48.776;9.280;2024-01-27T03:57:08;5.07;;;2.60;;
11618;SDS011;5865;48.776;9.280;2024-01-27T03:59:35;4.83;;;2.40;;
11618;SDS011;5865;48.776;9.280;2024-01-27T04:02:04;6.07;;;2.83;;
11618;SDS011;5865;48.776;9.280;2024-01-27T04:04:32;4.93;;;2.60;;
11618;SDS011;5865;48.776;9.280;2024-01-27T04:07:01;6.17;;;2.83;;
11618;SDS011;5865;48.776;9.280;2024-01-27T04:09:28;7.13;;;2.60;;
11618;SDS011;5865;48.776;9.280;2024-01-27T04:11:55;7.07;;;2.57;;
11618;SDS011;5865;48.776;9.280;2024-01-27T04:14:22;6.90;;;2.60;;
11618;SDS011;5865;48.776;9.280;2024-01-27T04:16:50;6.53;;;2.80;;
11618;SDS011;5865;48.776;9.280;2024-01-27T04:19:18;5.43;;;2.50;;
11618;SDS011;5865;48.776;9.280;2024-01-27T04:21:45;6.30;;;3.07;;
11618;SDS011;5865;48.776;9.280;2024-01-27T04:24:13;5.80;;;2.73;;
11618;SDS011;5865;48.776;9.280;2024-01-27T04:26:40;5.20;;;2.80;;
11618;SDS011;5865;48.776;9.280;2024-01-27T04:29:07;4.40;;;2.73;;
11618;SDS011;5865;48.776;9.280;2024-01-27T04:31:40;5.80;;;2.67;;
11618;SDS011;5865;48.776;9.280;2024-01-27T04:34:07;4.83;;;2.50;;
11618;SDS011;5865;48.776;9.280;2024-01-27T04:36:36;5.63;;;2.87;;
11618;SDS011;5865;48.776;9.280;2024-01-27T04:39:03;5.60;;;2.60;;
11618;SDS011;5865;48.776;9.280;2024-01-27T04:41:31;8.33;;;2.60;;
11618;SDS011;5865;48.776;9.280;2024-01-27T04:43:57;4.03;;;2.50;;
11618;SDS011;5865;48.776;9.280;2024-01-27T04:46:24;3.73;;;2.53;;
11618;SDS011;5865;48.776;9.280;2024-01-27T04:48:51;5.53;;;2.90;;
11618;SDS011;5865;48.776;9.280;2024-01-27T04:51:18;8.50;;;2.90;;
11618;SDS011;5865;48.776;9.280;2024-01-27T04:53:46;4.00;;;2.80;;
11618;SDS011;5865;48.776;9.280;2024-01-27T04:56:13;5.07;;;2.47;;
11618;SDS011;5865;48.776;9.280;2024-01-27T04:58:40;7.83;;;3.03;;
11618;SDS011;5865;48.776;9.280;2024-01-27T05:01:08;8.17;;;3.00;;
11618;SDS011;5865;48.776;9.280;2024-01-27T05:03:35;4.33;;;2.87;;
11618;SDS011;5865;48.776;9.280;2024-01-27T05:06:02;5.37;;;2.60;;
11618;SDS011;5865;48.776;9.280;2024-01-27T05:08:29;6.73;;;2.87;;
11618;SDS011;5865;48.776;9.280;2024-01-27T05:10:59;6.97;;;2.70;;
11618;SDS011;5865;48.776;9.280;2024-01-27T05:13:26;4.67;;;2.70;;
11618;SDS011;5865;48.776;9.280;2024-01-27T05:15:53;9.00;;;2.97;;
11618;SDS011;5865;48.776;9.280;2024-01-27T05:18:21;9.07;;;2.80;;
11618;SDS011;5865;48.776;9.280;2024-01-27T05:20:47;7.40;;;3.23;;
11618;SDS011;5865;48.776;9.280;2024-01-27T05:23:16;7.73;;;3.07;;
11618;SDS011;5865;48.776;9.280;2024-01-27T05:25:50;13.97;;;3.17;;
11618;SDS011;5865;48.776;9.280;2024-01-27T05:28:21;5.07;;;3.20;;
11618;SDS011;5865;48.776;9.280;2024-01-27T05:30:49;5.60;;;3.13;;
11618;SDS011;5865;48.776;9.280;2024-01-27T05:33:17;7.90;;;3.50;;
11618;SDS011;5865;48.776;9.280;2024-01-27T05:35:44;11.27;;;3.47;;
11618;SDS011;5865;48.776;9.280;2024-01-27T05:38:12;9.47;;;3.10;;
11618;SDS011;5865;48.776;9.280;2024-01-27T05:40:39;5.73;;;3.27;;
11618;SDS011;5865;48.776;9.280;2024-01-27T05:43:10;6.27;;;2.83;;
11618;SDS011;5865;48.776;9.280;2024-01-27T05:45:39;5.00;;;2.90;;
11618;SDS011;5865;48.776;9.280;2024-01-27T05:48:07;10.87;;;4.90;;
11618;SDS011;5865;48.776;9.280;2024-01-27T05:50:54;8.47;;;3.80;;
11618;SDS011;5865;48.776;9.280;2024-01-27T05:53:24;9.17;;;3.20;;
11618;SDS011;5865;48.776;9.280;2024-01-27T05:55:51;7.17;;;3.40;;
11618;SDS011;5865;48.776;9.280;2024-01-27T05:58:51;10.30;;;3.30;;
11618;SDS011;5865;48.776;9.280;2024-01-27T06:01:33;5.87;;;3.10;;
11618;SDS011;5865;48.776;9.280;2024-01-27T06:04:01;6.47;;;2.83;;
11618;SDS011;5865;48.776;9.280;2024-01-27T06:06:42;8.40;;;3.50;;
11618;SDS011;5865;48.776;9.280;2024-01-27T06:09:25;4.50;;;2.80;;
11618;SDS011;5865;48.776;9.280;2024-01-27T06:11:59;4.83;;;3.27;;
11618;SDS011;5865;48.776;9.280;2024-01-27T06:14:30;10.40;;;3.40;;
11618;SDS011;5865;48.776;9.280;2024-01-27T06:16:59;9.20;;;3.77;;
11618;SDS011;5865;48.776;9.280;2024-01-27T06:19:29;10.77;;;3.60;;
11618;SDS011;5865;48.776;9.280;2024-01-27T06:22:11;5.77;;;3.93;;
11618;SDS011;5865;48.776;9.280;2024-01-27T06:24:55;8.40;;;3.70;;
11618;SDS011;5865;48.776;9.280;2024-01-27T06:27:55;5.67;;;3.53;;
11618;SDS011;5865;48.776;9.280;2024-01-27T06:30:53;7.50;;;3.83;;
11618;SDS011;5865;48.776;9.280;2024-01-27T06:33:28;11.57;;;3.87;;
11618;SDS011;5865;48.776;9.280;2024-01-27T06:35:57;5.80;;;3.57;;
11618;SDS011;5865;48.776;9.280;2024-01-27T06:38:28;9.67;;;3.80;;
11618;SDS011;5865;48.776;9.280;2024-01-27T06:41:10;7.07;;;3.50;;
11618;SDS011;5865;48.776;9.280;2024-01-27T06:43:59;10.03;;;3.97;;
11618;SDS011;5865;48.776;9.280;2024-01-27T07:04:07;10.63;;;5.40;;
11618;SDS011;5865;48.776;9.280;2024-01-27T07:06:46;15.67;;;8.27;;
11618;SDS011;5865;48.776;9.280;2024-01-27T07:09:14;18.60;;;10.80;;
11618;SDS011;5865;48.776;9.280;2024-01-27T07:11:41;19.10;;;9.97;;
11618;SDS011;5865;48.776;9.280;2024-01-27T07:14:08;9.73;;;4.77;;
11618;SDS011;5865;48.776;9.280;2024-01-27T07:16:49;13.30;;;6.00;;
11618;SDS011;5865;48.776;9.280;2024-01-27T07:19:20;7.97;;;4.33;;
11618;SDS011;5865;48.776;9.280;2024-01-27T07:21:47;10.87;;;5.27;;
11618;SDS011;5865;48.776;9.280;2024-01-27T07:24:14;10.67;;;4.80;;
11618;SDS011;5865;48.776;9.280;2024-01-27T07:26:44;6.80;;;4.43;;
11618;SDS011;5865;48.776;9.280;2024-01-27T07:29:12;11.80;;;5.23;;
11618;SDS011;5865;48.776;9.280;2024-01-27T07:31:39;6.73;;;4.40;;
11618;SDS011;5865;48.776;9.280;2024-01-27T07:34:22;7.30;;;4.53;;
11618;SDS011;5865;48.776;9.280;2024-01-27T07:36:51;10.83;;;6.63;;
11618;SDS011;5865;48.776;9.280;2024-01-27T07:39:19;14.40;;;6.47;;
11618;SDS011;5865;48.776;9.280;2024-01-27T07:41:46;10.00;;;5.20;;
11618;SDS011;5865;48.776;9.280;2024-01-27T07:44:14;7.13;;;4.20;;
11618;SDS011;5865;48.776;9.280;2024-01-27T07:46:41;10.43;;;4.07;;
11618;SDS011;5865;48.776;9.280;2024-01-27T07:49:08;13.27;;;4.20;;
11618;SDS011;5865;48.776;9.280;2024-01-27T07:51:42;8.50;;;4.43;;
11618;SDS011;5865;48.776;9.280;2024-01-27T07:54:09;9.60;;;5.27;;
11618;SDS011;5865;48.776;9.280;2024-01-27T07:56:37;14.73;;;7.07;;
11618;SDS011;5865;48.776;9.280;2024-01-27T07:59:04;13.53;;;7.70;;
11618;SDS011;5865;48.776;9.280;2024-01-27T08:01:38;12.73;;;7.70;;
11618;SDS011;5865;48.776;9.280;2024-01-27T08:04:05;14.97;;;8.23;;
11618;SDS011;5865;48.776;9.280;2024-01-27T08:06:32;18.00;;;10.90;;
11618;SDS011;5865;48.776;9.280;2024-01-27T08:09:00;18.57;;;9.07;;
11618;SDS011;5865;48.776;9.280;2024-01-27T08:11:28;17.43;;;8.47;;
11618;SDS011;5865;48.776;9.280;2024-01-27T08:13:55;17.87;;;8.97;;
11618;SDS011;5865;48.776;9.280;2024-01-27T08:16:22;15.87;;;7.30;;
11618;SDS011;5865;48.776;9.280;2024-01-27T08:18:49;16.80;;;8.90;;
11618;SDS011;5865;48.776;9.280;2024-01-27T08:21:17;19.63;;;9.80;;
11618;SDS011;5865;48.776;9.280;2024-01-27T08:23:45;15.60;;;8.93;;
11618;SDS011;5865;48.776;9.280;2024-01-27T08:26:14;17.07;;;8.87;;
11618;SDS011;5865;48.776;9.280;2024-01-27T08:28:43;15.90;;;9.80;;
11618;SDS011;5865;48.776;9.280;2024-01-27T08:31:11;12.80;;;8.53;;
11618;SDS011;5865;48.776;9.280;2024-01-27T08:33:38;13.53;;;8.30;;
11618;SDS011;5865;48.776;9.280;2024-01-27T08:36:05;18.30;;;8.50;;
11618;SDS011;5865;48.776;9.280;2024-01-27T08:38:34;14.87;;;9.30;;
11618;SDS011;5865;48.776;9.280;2024-01-27T08:41:01;15.63;;;9.60;;
11618;SDS011;5865;48.776;9.280;2024-01-27T08:43:30;18.97;;;8.73;;
11618;SDS011;5865;48.776;9.280;2024-01-27T08:45:57;11.97;;;7.80;;
11618;SDS011;5865;48.776;9.280;2024-01-27T08:48:25;13.17;;;8.20;;
11618;SDS011;5865;48.776;9.280;2024-01-27T08:50:52;16.57;;;8.43;;
11618;SDS011;5865;48.776;9.280;2024-01-27T08:53:19;14.90;;;8.57;;
11618;SDS011;5865;48.776;9.280;2024-01-27T08:55:46;14.97;;;8.30;;
11618;SDS011;5865;48.776;9.280;2024-01-27T08:58:13;16.93;;;8.60;;
11618;SDS011;5865;48.776;9.280;2024-01-27T09:00:42;19.83;;;9.73;;
11618;SDS011;5865;48.776;9.280;2024-01-27T09:03:11;16.20;;;9.33;;
11618;SDS011;5865;48.776;9.280;2024-01-27T09:05:39;14.40;;;9.20;;
11618;SDS011;5865;48.776;9.280;2024-01-27T09:08:09;17.23;;;10.50;;
11618;SDS011;5865;48.776;9.280;2024-01-27T09:10:35;17.17;;;10.83;;
11618;SDS011;5865;48.776;9.280;2024-01-27T09:13:02;18.83;;;8.90;;
11618;SDS011;5865;48.776;9.280;2024-01-27T09:15:29;16.80;;;8.80;;
11618;SDS011;5865;48.776;9.280;2024-01-27T09:17:58;14.37;;;7.87;;
11618;SDS011;5865;48.776;9.280;2024-01-27T09:20:25;13.57;;;7.83;;
11618;SDS011;5865;48.776;9.280;2024-01-27T09:22:52;11.87;;;7.90;;
11618;SDS011;5865;48.776;9.280;2024-01-27T09:25:19;14.57;;;8.73;;
11618;SDS011;5865;48.776;9.280;2024-01-27T09:27:46;14.60;;;9.43;;
11618;SDS011;5865;48.776;9.280;2024-01-27T09:30:14;12.87;;;7.90;;
11618;SDS011;5865;48.776;9.280;2024-01-27T09:32:41;10.97;;;8.07;;
11618;SDS011;5865;48.776;9.280;2024-01-27T09:35:09;12.83;;;7.53;;
11618;SDS011;5865;48.776;9.280;2024-01-27T09:37:36;11.20;;;7.33;;
11618;SDS011;5865;48.776;9.280;2024-01-27T09:40:03;11.47;;;7.77;;
11618;SDS011;5865;48.776;9.280;2024-01-27T09:42:32;10.23;;;7.27;;
11618;SDS011;5865;48.776;9.280;2024-01-27T09:45:01;10.57;;;6.83;;
11618;SDS011;5865;48.776;9.280;2024-01-27T09:47:28;9.10;;;6.37;;
11618;SDS011;5865;48.776;9.280;2024-01-27T09:49:55;11.90;;;6.10;;
11618;SDS011;5865;48.776;9.280;2024-01-27T09:52:24;10.40;;;5.73;;
11618;SDS011;5865;48.776;9.280;2024-01-27T09:54:51;9.67;;;5.53;;
11618;SDS011;5865;48.776;9.280;2024-01-27T09:57:18;12.57;;;5.53;;
11618;SDS011;5865;48.776;9.280;2024-01-27T09:59:46;7.87;;;5.70;;
11618;SDS011;5865;48.776;9.280;2024-01-27T10:02:15;9.43;;;5.30;;
11618;SDS011;5865;48.776;9.280;2024-01-27T10:04:43;10.07;;;5.30;;
11618;SDS011;5865;48.776;9.280;2024-01-27T10:07:13;6.97;;;4.70;;
11618;SDS011;5865;48.776;9.280;2024-01-27T10:09:42;7.23;;;4.87;;
11618;SDS011;5865;48.776;9.280;2024-01-27T10:12:09;9.97;;;5.30;;
11618;SDS011;5865;48.776;9.280;2024-01-27T10:14:39;7.30;;;4.80;;
11618;SDS011;5865;48.776;9.280;2024-01-27T10:17:07;8.53;;;4.63;;
11618;SDS011;5865;48.776;9.280;2024-01-27T10:19:35;10.37;;;4.13;;
11618;SDS011;5865;48.776;9.280;2024-01-27T10:22:03;6.47;;;4.10;;
11618;SDS011;5865;48.776;9.280;2024-01-27T10:24:31;8.10;;;4.10;;
11618;SDS011;5865;48.776;9.280;2024-01-27T10:27:00;5.60;;;3.47;;
11618;SDS011;5865;48.776;9.280;2024-01-27T10:29:27;9.10;;;3.50;;
11618;SDS011;5865;48.776;9.280;2024-01-27T10:31:54;5.77;;;3.40;;
11618;SDS011;5865;48.776;9.280;2024-01-27T10:34:21;6.77;;;3.97;;
11618;SDS011;5865;48.776;9.280;2024-01-27T10:36:47;6.37;;;4.00;;
11618;SDS011;5865;48.776;9.280;2024-01-27T10:39:18;7.50;;;4.20;;
11618;SDS011;5865;48.776;9.280;2024-01-27T10:41:47;8.17;;;3.33;;
11618;SDS011;5865;48.776;9.280;2024-01-27T10:44:17;5.50;;;3.17;;
11618;SDS011;5865;48.776;9.280;2024-01-27T10:46:45;8.33;;;3.60;;
11618;SDS011;5865;48.776;9.280;2024-01-27T10:49:13;7.70;;;3.60;;
11618;SDS011;5865;48.776;9.280;2024-01-27T10:51:42;10.27;;;3.40;;
11618;SDS011;5865;48.776;9.280;2024-01-27T10:54:12;9.27;;;3.30;;
11618;SDS011;5865;48.776;9.280;2024-01-27T10:56:42;8.43;;;4.17;;
11618;SDS011;5865;48.776;9.280;2024-01-27T10:59:10;9.13;;;3.53;;
11618;SDS011;5865;48.776;9.280;2024-01-27T11:01:39;7.00;;;3.10;;
11618;SDS011;5865;48.776;9.280;2024-01-27T11:04:07;8.60;;;3.03;;
11618;SDS011;5865;48.776;9.280;2024-01-27T11:06:38;7.53;;;3.20;;
11618;SDS011;5865;48.776;9.280;2024-01-27T11:09:08;8.60;;;3.27;;
11618;SDS011;5865;48.776;9.280;2024-01-27T11:11:36;8.07;;;3.10;;
11618;SDS011;5865;48.776;9.280;2024-01-27T11:14:05;6.30;;;3.00;;
11618;SDS011;5865;48.776;9.280;2024-01-27T11:16:32;8.17;;;3.30;;
11618;SDS011;5865;48.776;9.280;2024-01-27T11:19:01;7.60;;;3.03;;
11618;SDS011;5865;48.776;9.280;2024-01-27T11:21:28;5.57;;;3.20;;
11618;SDS011;5865;48.776;9.280;2024-01-27T11:23:55;7.13;;;3.00;;
11618;SDS011;5865;48.776;9.280;2024-01-27T11:26:23;7.00;;;2.90;;
11618;SDS011;5865;48.776;9.280;2024-01-27T11:28:51;6.03;;;2.80;;
11618;SDS011;5865;48.776;9.280;2024-01-27T11:31:18;4.90;;;2.60;;
11618;SDS011;5865;48.776;9.280;2024-01-27T11:33:46;9.10;;;2.80;;
11618;SDS011;5865;48.776;9.280;2024-01-27T11:36:21;9.43;;;2.60;;
11618;SDS011;5865;48.776;9.280;2024-01-27T11:38:49;7.33;;;2.47;;
11618;SDS011;5865;48.776;9.280;2024-01-27T11:41:26;13.60;;;3.67;;
11618;SDS011;5865;48.776;9.280;2024-01-27T11:43:54;6.50;;;3.00;;
11618;SDS011;5865;48.776;9.280;2024-01-27T11:46:21;6.03;;;3.00;;
11618;SDS011;5865;48.776;9.280;2024-01-27T11:48:49;9.47;;;3.23;;
11618;SDS011;5865;48.776;9.280;2024-01-27T11:51:17;10.33;;;3.60;;
11618;SDS011;5865;48.776;9.280;2024-01-27T11:53:46;7.80;;;3.03;;
11618;SDS011;5865;48.776;9.280;2024-01-27T11:56:13;6.30;;;3.33;;
11618;SDS011;5865;48.776;9.280;2024-01-27T11:58:45;5.00;;;2.90;;
11618;SDS011;5865;48.776;9.280;2024-01-27T12:01:13;6.40;;;2.80;;
11618;SDS011;5865;48.776;9.280;2024-01-27T12:03:41;6.33;;;3.00;;
11618;SDS011;5865;48.776;9.280;2024-01-27T12:06:09;6.30;;;2.80;;
11618;SDS011;5865;48.776;9.280;2024-01-27T12:08:36;6.33;;;2.90;;
11618;SDS011;5865;48.776;9.280;2024-01-27T12:11:04;6.97;;;3.33;;
11618;SDS011;5865;48.776;9.280;2024-01-27T12:13:31;7.43;;;3.03;;
11618;SDS011;5865;48.776;9.280;2024-01-27T12:15:59;8.53;;;2.93;;
11618;SDS011;5865;48.776;9.280;2024-01-27T12:18:26;5.67;;;3.27;;
11618;SDS011;5865;48.776;9.280;2024-01-27T12:20:55;6.83;;;3.27;;
11618;SDS011;5865;48.776;9.280;2024-01-27T12:23:23;7.23;;;3.20;;
11618;SDS011;5865;48.776;9.280;2024-01-27T12:25:52;5.10;;;2.80;;
11618;SDS011;5865;48.776;9.280;2024-01-27T12:28:22;9.03;;;3.40;;
11618;SDS011;5865;48.776;9.280;2024-01-27T12:30:50;9.30;;;3.47;;
11618;SDS011;5865;48.776;9.280;2024-01-27T12:33:19;10.67;;;3.23;;
11618;SDS011;5865;48.776;9.280;2024-01-27T12:35:49;9.50;;;3.40;;
11618;SDS011;5865;48.776;9.280;2024-01-27T12:38:17;9.20;;;3.30;;
11618;SDS011;5865;48.776;9.280;2024-01-27T12:40:44;5.97;;;3.13;;
11618;SDS011;5865;48.776;9.280;2024-01-27T12:43:10;7.00;;;3.50;;
11618;SDS011;5865;48.776;9.280;2024-01-27T12:45:39;6.37;;;3.33;;
11618;SDS011;5865;48.776;9.280;2024-01-27T12:48:06;9.50;;;3.70;;
11618;SDS011;5865;48.776;9.280;2024-01-27T12:50:33;6.00;;;3.27;;
11618;SDS011;5865;48.776;9.280;2024-01-27T12:53:00;7.40;;;3.20;;
11618;SDS011;5865;48.776;9.280;2024-01-27T12:55:27;7.30;;;3.70;;
11618;SDS011;5865;48.776;9.280;2024-01-27T12:57:55;7.67;;;3.40;;
11618;SDS011;5865;48.776;9.280;2024-01-27T13:00:22;6.87;;;3.60;;
11618;SDS011;5865;48.776;9.280;2024-01-27T13:02:51;7.10;;;3.27;;
11618;SDS011;5865;48.776;9.280;2024-01-27T13:05:18;7.63;;;3.53;;
11618;SDS011;5865;48.776;9.280;2024-01-27T13:07:47;9.40;;;3.40;;
11618;SDS011;5865;48.776;9.280;2024-01-27T13:10:14;8.03;;;3.10;;
11618;SDS011;5865;48.776;9.280;2024-01-27T13:12:42;6.20;;;3.10;;
11618;SDS011;5865;48.776;9.280;2024-01-27T13:15:10;6.77;;;3.03;;
11618;SDS011;5865;48.776;9.280;2024-01-27T13:17:37;8.73;;;2.80;;
11618;SDS011;5865;48.776;9.280;2024-01-27T13:20:07;7.57;;;3.10;;
11618;SDS011;5865;48.776;9.280;2024-01-27T13:22:35;6.87;;;4.27;;
11618;SDS011;5865;48.776;9.280;2024-01-27T13:25:03;6.17;;;2.80;;
11618;SDS011;5865;48.776;9.280;2024-01-27T13:27:31;5.10;;;2.70;;
11618;SDS011;5865;48.776;9.280;2024-01-27T13:30:02;7.37;;;2.80;;
11618;SDS011;5865;48.776;9.280;2024-01-27T13:32:29;4.70;;;2.47;;
11618;SDS011;5865;48.776;9.280;2024-01-27T13:34:57;4.63;;;2.73;;
11618;SDS011;5865;48.776;9.280;2024-01-27T13:37:25;6.10;;;2.50;;
11618;SDS011;5865;48.776;9.280;2024-01-27T13:39:53;7.30;;;2.40;;
11618;SDS011;5865;48.776;9.280;2024-01-27T13:42:21;7.03;;;2.83;;
11618;SDS011;5865;48.776;9.280;2024-01-27T13:44:49;7.67;;;2.70;;
11618;SDS011;5865;48.776;9.280;2024-01-27T13:47:16;3.87;;;2.30;;
11618;SDS011;5865;48.776;9.280;2024-01-27T13:49:43;7.80;;;2.80;;
11618;SDS011;5865;48.776;9.280;2024-01-27T13:52:11;8.90;;;2.97;;
11618;SDS011;5865;48.776;9.280;2024-01-27T13:54:39;5.70;;;2.80;;
11618;SDS011;5865;48.776;9.280;2024-01-27T13:57:07;5.30;;;2.50;;
11618;SDS011;5865;48.776;9.280;2024-01-27T13:59:35;7.30;;;2.87;;
11618;SDS011;5865;48.776;9.280;2024-01-27T14:02:03;9.63;;;2.60;;
11618;SDS011;5865;48.776;9.280;2024-01-27T14:04:30;6.77;;;2.90;;
11618;SDS011;5865;48.776;9.280;2024-01-27T14:06:59;5.20;;;2.83;;
11618;SDS011;5865;48.776;9.280;2024-01-27T14:09:27;6.17;;;2.27;;
11618;SDS011;5865;48.776;9.280;2024-01-27T14:11:56;5.77;;;2.20;;
11618;SDS011;5865;48.776;9.280;2024-01-27T14:14:23;5.70;;;2.30;;
11618;SDS011;5865;48.776;9.280;2024-01-27T14:16:51;4.17;;;2.23;;
11618;SDS011;5865;48.776;9.280;2024-01-27T14:19:18;4.77;;;2.00;;
11618;SDS011;5865;48.776;9.280;2024-01-27T14:21:45;5.43;;;2.00;;
11618;SDS011;5865;48.776;9.280;2024-01-27T14:24:12;4.70;;;2.20;;
11618;SDS011;5865;48.776;9.280;2024-01-27T14:26:39;4.13;;;1.80;;
11618;SDS011;5865;48.776;9.280;2024-01-27T14:29:08;3.90;;;2.00;;
11618;SDS011;5865;48.776;9.280;2024-01-27T14:31:35;4.60;;;1.90;;
11618;SDS011;5865;48.776;9.280;2024-01-27T14:34:03;4.10;;;2.07;;
11618;SDS011;5865;48.776;9.280;2024-01-27T14:36:32;4.10;;;1.80;;
11618;SDS011;5865;48.776;9.280;2024-01-27T14:38:59;4.67;;;1.90;;
11618;SDS011;5865;48.776;9.280;2024-01-27T14:41:27;4.93;;;1.90;;
11618;SDS011;5865;48.776;9.280;2024-01-27T14:43:54;3.77;;;1.60;;
11618;SDS011;5865;48.776;9.280;2024-01-27T14:46:23;4.80;;;1.97;;
11618;SDS011;5865;48.776;9.280;2024-01-27T14:48:50;4.00;;;1.80;;
11618;SDS011;5865;48.776;9.280;2024-01-27T14:51:19;5.07;;;1.77;;
11618;SDS011;5865;48.776;9.280;2024-01-27T14:53:47;2.40;;;1.63;;
11618;SDS011;5865;48.776;9.280;2024-01-27T14:56:14;3.03;;;1.80;;
11618;SDS011;5865;48.776;9.280;2024-01-27T14:58:41;3.17;;;1.40;;
11618;SDS011;5865;48.776;9.280;2024-01-27T15:01:11;3.10;;;1.50;;
11618;SDS011;5865;48.776;9.280;2024-01-27T15:06:38;3.63;;;1.63;;
11618;SDS011;5865;48.776;9.280;2024-01-27T15:09:09;3.67;;;1.67;;
11618;SDS011;5865;48.776;9.280;2024-01-27T15:11:40;3.63;;;1.77;;
11618;SDS011;5865;48.776;9.280;2024-01-27T15:14:08;4.47;;;1.50;;
11618;SDS011;5865;48.776;9.280;2024-01-27T15:16:35;3.93;;;1.70;;
11618;SDS011;5865;48.776;9.280;2024-01-27T15:19:02;3.47;;;1.87;;
11618;SDS011;5865;48.776;9.280;2024-01-27T15:21:30;4.73;;;2.00;;
11618;SDS011;5865;48.776;9.280;2024-01-27T15:24:09;4.07;;;1.83;;
11618;SDS011;5865;48.776;9.280;2024-01-27T15:26:36;6.27;;;2.10;;
11618;SDS011;5865;48.776;9.280;2024-01-27T15:29:05;4.57;;;1.87;;